Latest Weather Observations for The Monument

IDQ60801

Issued at 11:02 pm EST Monday 3 August 2015 (issued every 30 minutes, with the page automatically refreshed every 10 minutes)

About weather observations | Map of weather stations | Latest weather observations for QLD | Other Formats
Station Details ID: 037034 Name: THE MONUMENT AIRPORT Lat: -21.81 Lon: 139.93 Height: 288.4 m
Data from the previous 72 hours. | See also: Recent months at The Monument
Date/Time
EST
Temp
°C
App
Temp
°C
Dew
Point
Rel
Hum
%
Delta-T
°C
Wind Press
QNH
hPa
Press
MSL
hPa
Rain
since 9 am
mm
Dir
 
Spd
km/h
Gust
km/h
Spd
kts
Gust
kts
03/11:00pm 14.3 7.6 -3.9 28 7.1 S 22 32 12 17 1024.2 1023.5 0.0
03/10:30pm 14.8 7.7 -4.0 27 7.3 S 24 32 13 17 1024.2 1023.5 0.0
03/10:00pm 15.2 8.9 -3.6 27 7.4 S 20 30 11 16 1024.2 1023.5 0.0
03/09:30pm 15.8 9.7 -3.6 26 7.8 S 19 26 10 14 1024.1 1023.4 0.0
03/09:00pm 16.4 10.1 -3.7 25 8.0 S 20 28 11 15 1024.0 1023.3 0.0
03/08:30pm 17.1 11.0 -2.5 26 8.1 S 20 30 11 16 1023.6 1023.0 0.0
03/08:00pm 17.6 11.1 -2.6 25 8.4 S 22 33 12 18 1023.1 1022.5 0.0
03/07:30pm 18.4 11.9 -2.5 24 8.8 S 22 32 12 17 1022.8 1022.2 0.0
03/07:00pm 18.9 12.6 -1.0 26 8.6 S 22 30 12 16 1022.6 1022.0 0.0
03/06:30pm 19.5 12.9 -0.5 26 8.8 S 24 35 13 19 1022.3 1021.7 0.0
03/06:00pm 20.4 12.3 -0.3 25 9.2 S 32 43 17 23 1022.1 1021.5 0.0
03/05:30pm 21.2 13.8 -0.7 23 9.8 S 28 39 15 21 1021.8 1021.2 0.0
03/05:00pm 22.1 14.8 0.0 23 10.0 S 28 43 15 23 1021.6 1021.0 0.0
03/04:30pm 22.4 14.5 0.9 24 10.0 S 32 39 17 21 1021.4 1020.7 0.0
03/04:00pm 22.7 15.6 1.1 24 10.1 S 28 39 15 21 1021.4 1020.7 0.0
03/03:30pm 22.6 15.2 1.6 25 9.9 S 30 41 16 22 1021.5 1020.8 0.0
03/03:00pm 22.7 15.0 2.2 26 9.8 SSE 32 43 17 23 1021.6 1021.0 0.0
03/02:30pm 22.2 14.5 2.3 27 9.5 S 32 44 17 24 1021.8 1021.2 0.0
03/02:00pm 22.4 15.3 3.5 29 9.2 S 30 41 16 22 1022.3 1021.7 0.0
03/01:33pm 21.8 15.1 3.5 30 8.9 S 28 46 15 25 1022.7 1022.1 0.0
03/01:30pm 21.9 15.3 4.0 31 8.8 S 28 41 15 22 1022.8 1022.2 0.0
03/01:00pm 21.0 14.4 4.1 33 8.2 SSE 28 37 15 20 1023.3 1022.7 0.0
03/12:30pm 20.4 12.9 3.6 33 8.1 S 32 43 17 23 1023.7 1023.1 0.0
03/12:02pm 19.8 13.2 4.3 36 7.6 SSE 28 50 15 27 1024.1 1023.4 0.0
03/12:00pm 20.1 13.2 4.6 36 7.6 SSE 30 41 16 22 1024.3 1023.6 0.0
03/11:30am 19.0 12.1 4.7 39 7.0 S 30 39 16 21 1024.5 1023.8 0.0
03/11:00am 18.2 11.8 5.1 42 6.4 SSE 28 39 15 21 1024.7 1024.1 0.0
03/10:30am 17.8 11.8 5.1 43 6.2 SSE 26 41 14 22 1024.9 1024.3 0.0
03/10:00am 16.0 9.8 4.4 46 5.5 SSE 26 37 14 20 1024.8 1024.2 0.0
03/09:30am 15.4 9.2 4.5 48 5.2 SSE 26 35 14 19 1024.6 1024.0 0.0
03/09:00am 14.4 8.5 4.1 50 4.8 S 24 37 13 20 1024.2 1023.5 0.0
03/08:30am 13.5 7.3 4.1 53 4.4 S 26 35 14 19 1024.0 1023.3 0.0
03/08:00am 13.0 7.9 4.2 55 4.0 S 20 28 11 15 1023.6 1023.0 0.0
03/07:30am 12.5 8.0 4.2 57 3.8 S 17 24 9 13 1023.2 1022.6 0.0
03/07:00am 12.7 7.7 4.4 57 3.8 S 20 30 11 16 1022.8 1022.2 0.0
03/06:30am 12.9 8.0 4.3 56 4.0 S 19 22 10 12 1022.5 1021.9 0.0
03/06:00am 13.3 8.3 4.5 55 4.1 S 20 28 11 15 1022.3 1021.7 0.0
03/05:30am 13.8 8.4 4.7 54 4.3 SSW 22 30 12 16 1022.1 1021.5 0.0
03/05:00am 14.1 8.4 4.7 53 4.4 S 24 30 13 16 1021.8 1021.2 0.0
03/04:30am 14.5 9.5 4.8 52 4.6 S 20 28 11 15 1021.6 1021.0 0.0
03/04:00am 14.9 10.0 4.9 51 4.7 S 20 30 11 16 1021.7 1021.1 0.0
03/03:30am 15.5 10.2 5.1 50 5.0 S 22 33 12 18 1021.7 1021.1 0.0
03/03:00am 16.0 10.3 5.0 48 5.3 S 24 33 13 18 1021.8 1021.2 0.0
03/02:30am 16.6 10.6 5.3 47 5.5 S 26 35 14 19 1021.9 1021.3 0.0
03/02:00am 17.2 11.2 5.5 46 5.7 S 26 35 14 19 1022.0 1021.4 0.0
03/01:30am 17.8 11.1 5.4 44 6.1 S 30 41 16 22 1021.9 1021.3 0.0
03/01:12am 18.3 12.0 5.8 44 6.2 S 28 43 15 23 1021.8 1021.2 0.0
03/01:00am 18.4 13.6 5.6 43 6.3 S 20 24 11 13 1021.7 1021.1 0.0
03/12:30am 19.2 14.1 6.0 42 6.6 S 22 32 12 17 1021.5 1020.8 0.0
03/12:00am 19.9 13.6 5.9 40 7.0 S 28 44 15 24 1021.3 1020.6 0.0
 
Date/Time
EST
Temp
°C
App
Temp
°C
Dew
Point
Rel
Hum
%
Delta-T
°C
Wind Press
QNH
hPa
Press
MSL
hPa
Rain
since 9 am
mm
Dir
 
Spd
km/h
Gust
km/h
Spd
kts
Gust
kts
02/11:30pm 20.6 14.5 5.0 36 7.8 SSW 26 35 14 19 1021.1 1020.4 0.0
02/11:00pm 21.4 15.4 3.1 30 8.8 S 24 35 13 19 1020.9 1020.2 0.0
02/10:30pm 22.2 16.2 1.3 25 9.8 SSW 22 30 12 16 1020.6 1019.9 0.0
02/10:00pm 23.0 17.1 -0.5 21 10.7 SSW 20 28 11 15 1020.4 1019.7 0.0
02/09:30pm 23.7 17.7 -1.3 19 11.3 SSW 20 28 11 15 1020.0 1019.4 0.0
02/09:00pm 24.6 18.5 0.2 20 11.4 SSW 22 32 12 17 1019.5 1018.9 0.0
02/08:30pm 24.9 20.9 3.0 24 10.8 SW 13 17 7 9 1018.9 1018.3 0.0
02/08:00pm 24.7 21.6 3.4 25 10.5 WSW 9 11 5 6 1018.6 1018.0 0.0
02/07:30pm 25.8 22.2 3.1 23 11.3 WSW 11 11 6 6 1018.2 1017.5 0.0
02/07:00pm 26.8 23.6 3.3 22 11.8 WSW 9 13 5 7 1018.1 1017.4 0.0
02/06:30pm 28.3 24.4 3.2 20 12.7 WSW 13 15 7 8 1017.8 1017.1 0.0
02/06:00pm 30.0 26.2 3.9 19 13.5 W 13 19 7 10 1017.5 1016.8 0.0
02/05:30pm 30.8 26.8 2.9 17 14.3 W 13 24 7 13 1017.2 1016.5 0.0
02/05:00pm 31.0 26.1 3.9 18 14.1 WSW 19 24 10 13 1017.1 1016.4 0.0
02/04:30pm 31.0 26.8 3.9 18 14.1 SW 15 24 8 13 1017.0 1016.3 0.0
02/04:00pm 31.2 28.0 3.3 17 14.4 W 9 20 5 11 1016.9 1016.2 0.0
02/03:30pm 31.4 27.3 4.2 18 14.3 WSW 15 22 8 12 1017.0 1016.3 0.0
02/03:00pm 31.3 27.7 4.9 19 14.0 NW 13 26 7 14 1017.2 1016.5 0.0
02/02:30pm 30.6 27.4 5.1 20 13.5 SW 11 24 6 13 1017.4 1016.7 0.0
02/02:00pm 30.5 25.8 5.0 20 13.5 W 19 28 10 15 1017.8 1017.1 0.0
02/01:30pm 30.6 26.4 5.8 21 13.3 NNW 17 26 9 14 1018.2 1017.5 0.0
02/01:00pm 30.0 26.6 6.0 22 12.8 W 13 20 7 11 1018.9 1018.3 0.0
02/12:30pm 29.6 26.7 6.3 23 12.5 WNW 11 22 6 12 1019.4 1018.8 0.0
02/12:00pm 29.0 25.3 6.4 24 12.1 NW 15 24 8 13 1019.8 1019.2 0.0
02/11:30am 28.7 25.1 6.7 25 11.8 WNW 15 22 8 12 1020.2 1019.6 0.0
02/11:00am 28.2 24.0 5.7 24 11.8 NNW 17 22 9 12 1020.2 1019.6 0.0
02/10:30am 27.5 22.8 5.1 24 11.7 N 19 30 10 16 1020.6 1019.9 0.0
02/10:00am 27.2 23.0 5.5 25 11.3 N 17 24 9 13 1020.5 1019.8 0.0
02/09:30am 25.9 22.4 5.5 27 10.6 N 13 17 7 9 1020.4 1019.7 0.0
02/09:00am 23.9 21.1 5.3 30 9.5 NNW 9 15 5 8 1020.0 1019.4 0.0
02/08:30am 20.2 18.1 5.8 39 7.2 NNW 6 7 3 4 1019.7 1019.1 0.0
02/08:00am 16.0 13.5 5.0 48 5.3 N 7 9 4 5 1019.3 1018.7 0.0
02/07:30am 13.9 11.4 4.5 53 4.4 N 7 7 4 4 1019.0 1018.4 0.0
02/07:00am 13.3 11.2 3.9 53 4.3 N 4 7 2 4 1018.8 1018.2 0.0
02/06:30am 12.7 9.3 2.0 48 4.7 N 9 11 5 6 1018.5 1017.9 0.0
02/06:00am 13.0 9.8 2.8 50 4.6 NW 9 11 5 6 1018.1 1017.4 0.0
02/05:30am 13.8 10.5 2.4 46 5.1 NW 9 9 5 5 1017.9 1017.2 0.0
02/05:00am 14.1 11.5 3.3 48 4.9 NW 6 7 3 4 1017.8 1017.1 0.0
02/04:30am 13.9 11.2 2.5 46 5.1 N 6 7 3 4 1017.8 1017.1 0.0
02/04:00am 14.7 11.6 3.5 47 5.2 N 9 9 5 5 1017.8 1017.1 0.0
02/03:30am 15.5 12.1 4.2 47 5.3 N 11 13 6 7 1017.8 1017.1 0.0
02/03:00am 14.0 10.6 2.0 44 5.3 NNE 9 13 5 7 1018.0 1017.3 0.0
02/02:30am 15.5 12.5 2.3 41 6.0 NNE 7 9 4 5 1018.1 1017.4 0.0
02/02:00am 14.6 11.3 2.5 44 5.4 NNE 9 9 5 5 1018.2 1017.5 0.0
02/01:30am 15.1 12.2 1.6 40 6.0 N 6 7 3 4 1018.4 1017.7 0.0
02/01:00am 15.3 13.6 2.1 41 5.9 CALM 0 0 0 0 1018.5 1017.9 0.0
02/12:30am 16.5 13.4 3.6 42 6.1 N 9 11 5 6 1018.5 1017.9 0.0
02/12:00am 17.6 14.2 4.2 41 6.4 NNE 11 11 6 6 1018.6 1018.0 0.0
 
Date/Time
EST
Temp
°C
App
Temp
°C
Dew
Point
Rel
Hum
%
Delta-T
°C
Wind Press
QNH
hPa
Press
MSL
hPa
Rain
since 9 am
mm
Dir
 
Spd
km/h
Gust
km/h
Spd
kts
Gust
kts
01/11:30pm 17.7 14.8 4.6 42 6.3 NNE 9 11 5 6 1018.7 1018.1 0.0
01/11:00pm 17.9 14.9 4.1 40 6.6 NNE 9 9 5 5 1018.8 1018.2 0.0
01/10:30pm 18.4 15.4 4.2 39 6.8 NNE 9 9 5 5 1018.7 1018.1 0.0
01/10:00pm 18.7 16.1 4.1 38 7.0 NNE 7 7 4 4 1018.6 1018.0 0.0
01/09:30pm 19.8 16.8 4.3 36 7.6 NNE 9 11 5 6 1018.4 1017.7 0.0
01/09:00pm 20.0 16.6 4.1 35 7.7 NNE 11 13 6 7 1018.3 1017.6 0.0
01/08:30pm 20.2 17.1 3.4 33 8.1 NNE 9 9 5 5 1018.0 1017.3 0.0
01/08:00pm 20.9 18.1 3.2 31 8.5 NNE 7 9 4 5 1017.7 1017.0 0.0
01/07:30pm 22.1 19.0 3.7 30 9.0 NE 9 11 5 6 1017.3 1016.6 0.0
01/07:00pm 23.4 20.3 3.4 27 9.8 NE 9 11 5 6 1016.9 1016.2 0.0
01/06:30pm 25.4 22.4 4.0 25 10.8 NNE 9 13 5 7 1016.8 1016.1 0.0
01/06:00pm 27.9 24.9 4.2 22 12.2 NNE 9 19 5 10 1016.6 1016.0 0.0
01/05:30pm 29.4 26.5 4.8 21 12.9 N 9 17 5 9 1016.6 1016.0 0.0
01/05:00pm 29.5 26.3 4.9 21 12.9 N 11 17 6 9 1016.6 1016.0 0.0
01/04:30pm 29.8 26.6 5.1 21 13.0 NNW 11 19 6 10 1016.6 1016.0 0.0
01/04:00pm 30.2 26.7 5.5 21 13.1 N 13 24 7 13 1016.6 1016.0 0.0
01/03:30pm 29.5 25.1 4.9 21 12.9 NNW 17 22 9 12 1017.0 1016.3 0.0
01/03:00pm 29.0 24.8 5.8 23 12.3 NNW 17 26 9 14 1017.2 1016.5 0.0
01/02:30pm 29.3 24.6 6.0 23 12.4 N 20 28 11 15 1017.4 1016.7 0.0
01/02:00pm 28.9 24.1 5.7 23 12.3 N 20 32 11 17 1017.8 1017.1 0.0
01/01:30pm 28.3 23.9 6.4 25 11.7 N 19 39 10 21 1018.2 1017.5 0.0
01/01:00pm 27.8 23.3 6.0 25 11.5 N 19 35 10 19 1018.8 1018.2 0.0
01/12:30pm 27.5 22.5 6.3 26 11.3 N 22 33 12 18 1019.3 1018.7 0.0
01/12:00pm 26.8 21.0 6.2 27 10.9 N 26 37 14 20 1019.7 1019.1 0.0
01/11:30am 26.3 19.9 5.3 26 10.9 NNE 28 39 15 21 1020.1 1019.5 0.0
01/11:00am 25.6 18.8 5.2 27 10.5 NNE 30 41 16 22 1020.4 1019.7 0.0
01/10:37am 24.7 18.0 3.9 26 10.4 NNE 28 48 15 26 1020.4 1019.7 0.0
01/10:30am 24.8 18.5 4.0 26 10.4 NNE 26 37 14 20 1020.4 1019.7 0.0
01/10:00am 22.4 16.0 3.0 28 9.4 NNE 26 39 14 21 1020.5 1019.8 0.0
01/09:30am 21.3 13.7 3.0 30 8.8 NE 32 43 17 23 1020.1 1019.8 0.0
01/09:00am 20.5 14.8 2.8 31 8.4 NE 22 30 12 16 1019.9 1019.6 0.0
01/08:30am 18.1 13.3 2.8 36 7.1 NNE 17 20 9 11 1019.8 1019.5 0.0
01/08:00am 15.9 11.7 3.7 44 5.7 NNE 15 19 8 10 1019.5 1019.1 0.0
01/07:30am 13.8 9.6 3.6 50 4.7 NNE 15 17 8 9 1019.3 1018.9 0.0
01/07:00am 13.5 9.3 3.6 51 4.5 NNE 15 17 8 9 1019.1 1018.7 0.0
01/06:30am 13.9 9.6 3.4 49 4.8 NNE 15 17 8 9 1018.7 1018.3 0.0
01/06:00am 13.5 9.6 3.3 50 4.6 NNE 13 17 7 9 1018.5 1018.1 0.0
01/05:30am 13.9 9.7 3.7 50 4.7 NE 15 17 8 9 1018.5 1018.1 0.0
01/05:00am 12.9 8.9 3.0 51 4.4 NE 13 15 7 8 1018.3 1017.9 0.0
01/04:30am 12.4 8.2 1.7 48 4.7 NE 13 13 7 7 1018.4 1018.0 0.0
01/04:00am 12.9 10.1 2.2 48 4.7 NNE 6 9 3 5 1018.6 1018.2 0.0
01/03:30am 13.2 11.4 0.9 43 5.3 CALM 0 6 0 3 1018.8 1018.4 0.0
01/03:00am 12.8 9.8 1.8 47 4.8 ENE 7 9 4 5 1018.9 1018.5 0.0
01/02:30am 12.3 9.0 0.4 44 5.0 NE 7 9 4 5 1019.2 1018.8 0.0
01/02:00am 13.4 10.9 -1.0 37 5.9 SE 2 7 1 4 1019.6 1019.3 0.0
01/01:30am 14.2 12.0 -1.4 34 6.4 CALM 0 0 0 0 1019.6 1019.3 0.0
01/01:00am 14.8 12.7 -0.5 35 6.5 CALM 0 0 0 0 1019.6 1019.3 0.0
01/12:30am 15.2 13.1 -0.9 33 6.8 CALM 0 0 0 0 1019.8 1019.5 0.0
01/12:00am 15.4 12.7 0.4 36 6.5 SE 4 7 2 4 1019.8 1019.5 0.0
 
Date/Time
EST
Temp
°C
App
Temp
°C
Dew
Point
Rel
Hum
%
Delta-T
°C
Wind Press
QNH
hPa
Press
MSL
hPa
Rain
since 9 am
mm
Dir
 
Spd
km/h
Gust
km/h
Spd
kts
Gust
kts
31/11:30pm 15.4 13.4 -0.4 34 6.7 CALM 0 0 0 0 1020.0 1019.7 0.0

Other Formats:

Comma delimited format used in spreadsheet applications
http://www.bom.gov.au/fwo/IDQ60801/IDQ60801.94336.axf

JavaScript Object Notation format (JSON) in row-major order
http://www.bom.gov.au/fwo/IDQ60801/IDQ60801.94336.json